Time;durP1;ratioP1;P1;durP2;ratioP2;P2;SDS_P1;SDS_P2;PMS_P1;PMS_P2;Temp;Humidity;BMP_temperature;BMP_pressure;BME280_temperature;BME280_humidity;BME280_pressure;Samples;Min_cycle;Max_cycle;Signal;HPM_P1;HPM_P2
2022/01/24 00:01:06;;;;;;;10.38;9.85;;;;;;;-4.98;100.00;102107.50;5010475;28;20065;-62
2022/01/24 00:03:32;;;;;;;10.85;10.25;;;;;;;-4.92;100.00;102112.50;5007269;28;20515;-63
2022/01/24 00:05:58;;;;;;;10.52;9.93;;;;;;;-4.92;100.00;102112.50;5007801;28;20667;-63
2022/01/24 00:08:23;;;;;;;10.23;9.70;;;;;;;-4.90;100.00;102118.50;5016902;28;20025;-63
2022/01/24 00:10:51;;;;;;;10.23;9.70;;;;;;;-4.92;100.00;102117.69;5009959;28;20111;-62
2022/01/24 00:26:49;;;;;;;11.30;10.70;;;;;;;-5.04;100.00;102142.97;5001060;28;20066;-63
2022/01/24 00:29:17;;;;;;;10.70;10.10;;;;;;;-4.92;100.00;102148.72;5004431;28;20486;-63
2022/01/24 00:31:43;;;;;;;11.15;10.48;;;;;;;-4.96;100.00;102157.47;4988561;28;20073;-63
2022/01/24 00:34:08;;;;;;;10.68;10.07;;;;;;;-4.96;100.00;102153.16;5008605;28;20481;-63
2022/01/24 00:36:35;;;;;;;11.82;11.13;;;;;;;-4.97;100.00;102151.44;4985909;28;20034;-62
2022/01/24 00:39:01;;;;;;;12.18;11.38;;;;;;;-4.95;100.00;102154.84;5009433;28;20030;-63
2022/01/24 00:41:26;;;;;;;10.63;10.10;;;;;;;-4.98;100.00;102151.50;5012060;28;20452;-62
2022/01/24 00:46:35;;;;;;;10.50;10.00;;;;;;;-4.97;100.00;102161.81;5009688;28;20087;-63
2022/01/24 00:57:00;;;;;;;11.32;10.73;;;;;;;-4.94;100.00;102169.47;5004149;28;20524;-63
2022/01/24 00:59:26;;;;;;;10.30;9.80;;;;;;;-4.97;100.00;102161.81;5008331;28;20118;-62
2022/01/24 01:01:52;;;;;;;11.40;10.70;;;;;;;-4.95;100.00;102167.78;5005488;28;20034;-63
2022/01/24 01:04:21;;;;;;;11.30;10.65;;;;;;;-4.96;100.00;102170.41;5009682;28;20435;-64
2022/01/24 01:06:49;;;;;;;11.40;10.73;;;;;;;-4.92;100.00;102166.84;5005750;28;20040;-61
2022/01/24 01:20:11;;;;;;;10.88;10.30;;;;;;;-4.98;100.00;102164.44;5008802;28;20524;-63
2022/01/24 01:22:37;;;;;;;11.38;10.68;;;;;;;-4.98;100.00;102159.25;5007156;28;20034;-62
2022/01/24 01:25:02;;;;;;;10.90;10.30;;;;;;;-4.95;100.00;102167.78;5007939;28;20030;-62
2022/01/24 01:27:36;;;;;;;10.57;10.02;;;;;;;-4.94;100.00;102160.88;5005938;28;20038;-63
2022/01/24 01:30:09;;;;;;;9.98;9.48;;;;;;;-4.93;100.00;102159.97;5009646;28;20026;-62
2022/01/24 01:33:28;;;;;;;11.32;10.73;;;;;;;-4.93;100.00;102157.38;5006581;28;20034;-63
2022/01/24 01:35:41;;;;;;;11.10;10.48;;;;;;;-5.04;100.00;102166.25;4998317;28;20042;-63
2022/01/24 01:57:16;;;;;;;11.65;10.95;;;;;;;-5.09;100.00;102199.13;5005312;28;20283;-63
2022/01/24 01:59:42;;;;;;;11.52;10.82;;;;;;;-5.10;100.00;102199.19;5007332;28;20084;-62
2022/01/24 02:02:09;;;;;;;10.77;10.18;;;;;;;-5.04;100.00;102206.81;5005452;28;20034;-63
2022/01/24 02:04:34;;;;;;;10.63;10.02;;;;;;;-5.16;100.00;102196.72;5007830;28;20065;-62
2022/01/24 02:07:02;;;;;;;11.95;11.25;;;;;;;-5.12;100.00;102222.50;5009288;28;20049;-62
2022/01/24 02:09:33;;;;;;;11.15;10.55;;;;;;;-5.04;100.00;102218.00;5011329;28;20029;-63
2022/01/24 02:11:59;;;;;;;10.73;10.13;;;;;;;-5.17;100.00;102206.22;5008431;28;20029;-62
2022/01/24 02:14:31;;;;;;;10.60;10.10;;;;;;;-5.10;100.00;102215.56;5011363;28;20111;-63
2022/01/24 02:17:06;;;;;;;10.95;10.35;;;;;;;-5.08;100.00;102223.28;5009393;28;20524;-64
2022/01/24 02:20:13;;;;;;;11.38;10.77;;;;;;;-5.12;100.00;102230.28;5006691;28;20111;-63
2022/01/24 02:24:56;;;;;;;11.77;11.07;;;;;;;-5.10;100.00;102219.88;5009428;28;20378;-63
2022/01/24 02:27:23;;;;;;;10.57;10.07;;;;;;;-5.08;100.00;102231.03;5009414;28;20054;-63
2022/01/24 02:30:07;;;;;;;10.88;10.30;;;;;;;-5.10;100.00;102235.41;5012038;28;20030;-63
2022/01/24 02:32:37;;;;;;;12.07;11.32;;;;;;;-5.12;100.00;102234.59;5011132;28;20113;-63
2022/01/24 02:35:03;;;;;;;10.60;10.10;;;;;;;-5.13;100.00;102233.75;5011668;28;20551;-62
2022/01/24 02:37:28;;;;;;;11.00;10.38;;;;;;;-5.13;100.00;102235.47;5006810;28;20034;-63
2022/01/24 02:40:03;;;;;;;10.60;10.02;;;;;;;-5.38;100.00;102243.72;5012136;28;20084;-64
2022/01/24 02:48:28;;;;;;;11.70;11.05;;;;;;;-5.63;100.00;102232.19;4936862;28;20039;-62
2022/01/24 02:53:43;;;;;;;12.13;11.50;;;;;;;-5.59;100.00;102246.72;5006335;28;20053;-63
2022/01/24 02:56:09;;;;;;;11.73;11.02;;;;;;;-5.72;100.00;102253.03;5009207;28;20041;-62
2022/01/24 02:58:35;;;;;;;11.80;11.15;;;;;;;-5.67;100.00;102246.03;5009994;28;20026;-61
2022/01/24 03:01:06;;;;;;;12.32;11.63;;;;;;;-5.55;100.00;102261.31;5007263;28;20164;-63
2022/01/24 03:03:33;;;;;;;11.10;10.50;;;;;;;-5.56;100.00;102263.06;5007159;28;20037;-63
2022/01/24 03:05:58;;;;;;;11.27;10.68;;;;;;;-5.59;100.00;102267.41;5009494;28;20038;-64
2022/01/24 03:08:24;;;;;;;11.27;10.68;;;;;;;-5.64;100.00;102267.53;5008916;28;20018;-63
2022/01/24 03:10:52;;;;;;;12.70;11.90;;;;;;;-5.57;100.00;102263.09;5009078;28;20022;-63
2022/01/24 03:15:57;;;;;;;11.55;10.95;;;;;;;-5.54;100.00;102273.38;5009226;28;20092;-63
2022/01/24 03:18:23;;;;;;;11.63;11.02;;;;;;;-5.45;100.00;102270.59;5013397;28;20030;-64
2022/01/24 03:20:49;;;;;;;12.38;11.57;;;;;;;-5.45;100.00;102272.31;5007547;28;20030;-63
2022/01/24 03:23:20;;;;;;;11.88;11.18;;;;;;;-5.52;100.00;102276.75;5009701;28;20076;-64
2022/01/24 03:25:46;;;;;;;12.43;11.73;;;;;;;-5.60;100.00;102266.56;5012306;28;20069;-63
2022/01/24 03:28:12;;;;;;;12.38;11.60;;;;;;;-5.49;100.00;102289.66;5006426;28;20042;-64
2022/01/24 03:30:38;;;;;;;11.95;11.25;;;;;;;-5.48;100.00;102295.69;5001887;28;20042;-63
2022/01/24 03:33:06;;;;;;;12.27;11.57;;;;;;;-5.49;100.00;102294.81;5005840;28;20079;-62
2022/01/24 03:35:32;;;;;;;11.95;11.25;;;;;;;-5.51;100.00;102304.31;5009634;28;20040;-63
2022/01/24 03:37:58;;;;;;;12.60;11.90;;;;;;;-5.48;100.00;102293.09;5009255;28;20048;-63
2022/01/24 03:40:24;;;;;;;11.90;11.27;;;;;;;-5.46;100.00;102307.69;5009771;28;20033;-62
2022/01/24 03:42:49;;;;;;;13.13;12.23;;;;;;;-5.44;100.00;102297.31;5007068;28;20738;-63
2022/01/24 03:45:23;;;;;;;12.48;11.77;;;;;;;-5.41;100.00;102299.84;5009820;28;20499;-63
2022/01/24 03:48:53;;;;;;;12.57;11.77;;;;;;;-5.45;100.00;102309.38;5007831;28;20038;-63
2022/01/24 03:50:43;;;;;;;12.55;11.75;;;;;;;-5.46;100.00;102294.75;4998803;28;20044;-63
2022/01/24 03:53:08;;;;;;;11.65;11.05;;;;;;;-5.39;100.00;102298.06;5005511;28;20026;-62
2022/01/24 03:55:34;;;;;;;11.98;11.38;;;;;;;-5.46;100.00;102292.16;5009318;28;20042;-63
2022/01/24 03:57:59;;;;;;;12.10;11.40;;;;;;;-5.42;100.00;102304.16;5003475;28;20041;-62
2022/01/24 04:00:25;;;;;;;12.07;11.38;;;;;;;-5.36;100.00;102306.66;5009605;28;20030;-62
2022/01/24 04:02:50;;;;;;;11.68;10.98;;;;;;;-5.41;100.00;102305.03;5008875;28;20025;-63
2022/01/24 04:05:16;;;;;;;11.68;10.98;;;;;;;-5.42;100.00;102313.66;5007945;28;20088;-63
2022/01/24 04:07:49;;;;;;;11.10;10.50;;;;;;;-5.36;100.00;102316.09;5008701;28;20025;-63
2022/01/24 04:10:21;;;;;;;11.63;10.93;;;;;;;-5.39;100.00;102311.84;5006455;28;20018;-63
2022/01/24 04:12:49;;;;;;;12.57;11.77;;;;;;;-5.40;100.00;102315.34;5002793;28;20032;-63
2022/01/24 04:15:35;;;;;;;11.38;10.77;;;;;;;-5.36;100.00;102326.44;5008347;28;20030;-63
2022/01/24 04:21:21;;;;;;;11.65;11.02;;;;;;;-5.32;100.00;102331.56;4949259;28;20153;-63
2022/01/24 04:23:53;;;;;;;11.88;11.18;;;;;;;-5.35;100.00;102331.63;4948078;28;20031;-63
2022/01/24 04:26:19;;;;;;;11.70;11.00;;;;;;;-5.33;99.86;102326.41;4983957;28;20509;-63
2022/01/24 04:28:44;;;;;;;11.43;10.73;;;;;;;-5.29;99.88;102335.81;5009528;28;20025;-62
2022/01/24 04:31:10;;;;;;;11.60;10.90;;;;;;;-5.32;99.95;102334.13;5004898;28;20535;-62
2022/01/24 04:33:35;;;;;;;11.60;10.90;;;;;;;-5.26;99.96;102334.91;5011457;28;20567;-62
2022/01/24 04:36:01;;;;;;;11.10;10.50;;;;;;;-5.32;100.00;102326.38;5006226;28;20032;-63
2022/01/24 04:38:27;;;;;;;11.68;11.07;;;;;;;-5.27;99.94;102331.47;5007255;28;20377;-64
2022/01/24 04:41:03;;;;;;;11.75;11.05;;;;;;;-5.29;99.56;102328.03;5006842;28;20033;-64
2022/01/24 04:54:13;;;;;;;11.75;11.05;;;;;;;-5.15;99.02;102340.72;5006486;28;20037;-63
2022/01/24 04:56:32;;;;;;;11.52;10.85;;;;;;;-5.21;98.53;102344.31;5003274;28;20034;-63
2022/01/24 04:58:58;;;;;;;11.85;11.15;;;;;;;-5.23;98.11;102340.00;5006421;28;20622;-62
2022/01/24 05:01:23;;;;;;;11.52;10.90;;;;;;;-5.20;98.88;102332.22;5010831;28;20037;-63
2022/01/24 05:03:49;;;;;;;12.10;11.30;;;;;;;-5.23;98.77;102340.88;5006815;28;20029;-63
2022/01/24 05:06:14;;;;;;;11.18;10.57;;;;;;;-5.18;99.30;102343.38;5005787;28;20053;-64
2022/01/24 05:08:40;;;;;;;10.90;10.30;;;;;;;-5.17;99.06;102348.50;5006452;28;20495;-63
2022/01/24 05:11:10;;;;;;;12.10;11.38;;;;;;;-5.21;99.85;102343.44;5006503;28;20026;-62
2022/01/24 05:24:37;;;;;;;10.80;10.20;;;;;;;-5.25;99.69;102352.13;5008530;28;20028;-63
2022/01/24 05:27:03;;;;;;;11.70;10.98;;;;;;;-5.23;100.00;102337.44;5012600;28;20424;-63
2022/01/24 05:29:30;;;;;;;10.93;10.32;;;;;;;-5.26;100.00;102345.25;5008433;28;20452;-62
2022/01/24 05:31:56;;;;;;;12.18;11.38;;;;;;;-5.23;100.00;102350.38;5006310;28;20077;-63
2022/01/24 05:34:22;;;;;;;11.70;11.00;;;;;;;-5.15;100.00;102364.00;5002626;28;20545;-63
2022/01/24 05:36:48;;;;;;;11.70;11.00;;;;;;;-5.17;100.00;102371.81;5009328;28;20386;-63
2022/01/24 05:39:13;;;;;;;11.63;10.90;;;;;;;-5.19;100.00;102373.56;5008907;28;20034;-63
2022/01/24 05:41:40;;;;;;;11.80;11.10;;;;;;;-5.25;100.00;102363.34;5014160;28;20033;-62
2022/01/24 05:44:07;;;;;;;11.90;11.15;;;;;;;-5.21;100.00;102361.56;5010382;28;20036;-63
2022/01/24 05:46:33;;;;;;;11.50;10.80;;;;;;;-5.18;100.00;102358.91;5009438;28;20224;-63
2022/01/24 05:48:58;;;;;;;11.95;11.18;;;;;;;-5.19;100.00;102365.81;5009424;28;20113;-62
2022/01/24 05:51:24;;;;;;;11.77;11.02;;;;;;;-5.23;99.97;102353.81;5004994;28;20033;-62
2022/01/24 05:53:50;;;;;;;12.35;11.55;;;;;;;-5.20;100.00;102364.09;5007157;28;20113;-63
2022/01/24 05:56:16;;;;;;;12.23;11.48;;;;;;;-5.21;100.00;102374.50;5011081;28;20038;-63
2022/01/24 05:58:42;;;;;;;11.98;11.18;;;;;;;-5.16;100.00;102375.25;5011362;28;20030;-63
2022/01/24 06:01:07;;;;;;;12.07;11.27;;;;;;;-5.15;99.51;102369.19;5008897;28;20166;-63
2022/01/24 06:03:33;;;;;;;11.82;11.10;;;;;;;-5.16;99.81;102376.09;4987690;28;20033;-63
2022/01/24 06:06:01;;;;;;;11.48;10.80;;;;;;;-5.23;99.98;102366.75;5007247;28;20092;-64
2022/01/24 06:08:27;;;;;;;11.25;10.60;;;;;;;-5.16;99.83;102376.09;5003286;28;20022;-63
2022/01/24 06:10:53;;;;;;;10.85;10.25;;;;;;;-5.08;100.00;102381.97;5008829;28;20551;-63
2022/01/24 06:13:19;;;;;;;11.07;10.48;;;;;;;-5.06;100.00;102388.00;5009080;28;20029;-62
2022/01/24 06:15:45;;;;;;;11.05;10.45;;;;;;;-5.20;99.94;102386.53;5010377;28;20034;-63
2022/01/24 06:18:10;;;;;;;12.07;11.32;;;;;;;-5.13;99.81;102390.72;5008832;28;20493;-64
2022/01/24 06:20:38;;;;;;;11.65;11.02;;;;;;;-5.22;99.72;102376.19;5008214;28;20073;-63
2022/01/24 06:23:04;;;;;;;10.95;10.35;;;;;;;-5.10;100.00;102396.69;5012198;28;20037;-63
2022/01/24 06:25:29;;;;;;;11.30;10.70;;;;;;;-5.10;100.00;102395.81;5009483;28;20029;-63
2022/01/24 06:27:58;;;;;;;11.88;11.10;;;;;;;-5.06;99.68;102394.91;5006807;28;20421;-62
2022/01/24 06:30:24;;;;;;;12.35;11.55;;;;;;;-5.10;99.91;102403.59;5005303;28;20069;-63
2022/01/24 06:32:51;;;;;;;12.60;11.73;;;;;;;-5.13;99.70;102401.06;5010924;28;20026;-63
2022/01/24 06:35:16;;;;;;;12.40;11.60;;;;;;;-5.12;99.41;102402.78;4995809;28;20140;-64
2022/01/24 06:37:42;;;;;;;11.65;10.95;;;;;;;-5.00;99.25;102412.88;5010986;28;20429;-63
2022/01/24 06:40:10;;;;;;;12.45;11.65;;;;;;;-4.93;98.88;102408.44;5004930;28;20511;-63
2022/01/24 06:42:38;;;;;;;11.73;11.02;;;;;;;-4.87;98.24;102418.69;5009806;28;20049;-62
2022/01/24 06:45:04;;;;;;;12.15;11.35;;;;;;;-4.84;98.43;102416.91;5007771;28;20036;-64
2022/01/24 06:47:30;;;;;;;11.10;10.45;;;;;;;-4.78;98.67;102416.75;5003897;28;20028;-62
2022/01/24 06:49:55;;;;;;;12.95;12.05;;;;;;;-4.28;100.00;102421.78;5005235;28;20481;-64
2022/01/24 06:52:21;;;;;;;11.60;10.90;;;;;;;-3.46;100.00;102426.78;5008410;28;20030;-64
2022/01/24 06:54:47;;;;;;;12.70;11.75;;;;;;;-4.50;97.53;102409.28;4992035;28;20124;-65
2022/01/24 06:57:17;;;;;;;11.25;10.55;;;;;;;-4.18;97.33;102426.75;4990335;28;20033;-65
2022/01/24 06:59:44;;;;;;;11.18;10.45;;;;;;;-3.48;93.82;102436.34;5002540;28;20097;-64
2022/01/24 07:02:14;;;;;;;11.32;10.57;;;;;;;-3.86;95.18;102430.34;5004095;28;20396;-64
2022/01/24 07:04:44;;;;;;;11.10;10.43;;;;;;;-3.76;93.11;102437.00;5005516;28;20108;-64
2022/01/24 07:07:12;;;;;;;11.77;10.98;;;;;;;-4.12;95.23;102432.66;5022224;28;20037;-64
2022/01/24 07:09:38;;;;;;;11.30;10.60;;;;;;;-4.23;95.86;102441.53;5007987;28;20028;-65
2022/01/24 07:12:04;;;;;;;10.75;10.15;;;;;;;-3.93;93.68;102434.81;5008634;28;20552;-64
2022/01/24 07:14:30;;;;;;;11.77;10.98;;;;;;;-3.92;92.93;102436.50;5010019;28;20037;-67
2022/01/24 07:19:30;;;;;;;11.20;10.50;;;;;;;-4.33;95.41;102428.78;5008764;28;20038;-64
2022/01/24 07:21:57;;;;;;;10.60;10.00;;;;;;;-4.35;94.27;102426.25;5007934;28;20021;-63
2022/01/24 07:24:24;;;;;;;12.48;11.57;;;;;;;-4.35;94.64;102425.38;4997519;28;20486;-64
2022/01/24 07:26:50;;;;;;;11.48;10.77;;;;;;;-4.31;94.65;102433.06;5004495;28;20582;-63
2022/01/24 07:29:16;;;;;;;12.13;11.32;;;;;;;-4.20;94.82;102433.69;5011665;28;20033;-63
2022/01/24 07:31:42;;;;;;;11.02;10.35;;;;;;;-4.19;94.09;102432.81;5009729;28;20038;-64
2022/01/24 07:34:08;;;;;;;11.38;10.68;;;;;;;-4.33;93.52;102424.50;5009082;28;20042;-62
2022/01/24 07:36:34;;;;;;;11.45;10.75;;;;;;;-4.20;93.58;102430.25;5005583;28;20034;-63
2022/01/24 07:39:00;;;;;;;10.93;10.27;;;;;;;-4.25;93.35;102442.47;5022834;28;20049;-63
2022/01/24 07:41:30;;;;;;;10.63;10.02;;;;;;;-4.21;93.41;102444.94;4989543;28;20030;-63
2022/01/24 07:43:57;;;;;;;10.35;9.75;;;;;;;-3.99;92.37;102441.88;5011784;28;20028;-64
2022/01/24 07:46:22;;;;;;;10.82;10.23;;;;;;;-4.21;92.42;102425.94;5005973;28;20030;-63
2022/01/24 07:48:48;;;;;;;11.52;10.82;;;;;;;-4.22;94.06;102426.84;5006225;28;20083;-62
2022/01/24 07:51:17;;;;;;;11.40;10.70;;;;;;;-3.97;93.40;102434.91;5006187;28;20050;-63
2022/01/24 07:53:43;;;;;;;10.30;9.77;;;;;;;-3.82;92.77;102451.84;5003971;28;20022;-62
2022/01/24 07:56:09;;;;;;;10.05;9.55;;;;;;;-3.82;93.10;102442.31;5012585;28;20043;-64
2022/01/24 07:58:35;;;;;;;11.23;10.52;;;;;;;-3.72;91.30;102446.44;5012895;28;20022;-63
2022/01/24 08:01:01;;;;;;;10.02;9.52;;;;;;;-3.81;91.61;102456.19;5011303;28;20512;-65
2022/01/24 08:03:26;;;;;;;10.77;10.13;;;;;;;-3.53;90.69;102454.59;5006259;28;20488;-64
2022/01/24 08:05:52;;;;;;;11.43;10.70;;;;;;;-3.50;90.37;102441.56;5002841;28;20501;-64
2022/01/24 08:08:18;;;;;;;11.05;10.35;;;;;;;-3.36;88.32;102449.03;5010481;28;20482;-65
2022/01/24 08:10:43;;;;;;;10.45;9.85;;;;;;;-3.34;88.12;102442.03;5001700;28;20087;-63
2022/01/24 08:13:09;;;;;;;10.40;9.80;;;;;;;-3.23;88.41;102458.22;5008911;28;20022;-64
2022/01/24 08:15:35;;;;;;;11.13;10.43;;;;;;;-3.06;87.71;102449.97;5017371;28;20464;-64
2022/01/24 08:18:03;;;;;;;10.10;9.50;;;;;;;-3.06;86.96;102456.03;5014729;28;20121;-63
2022/01/24 08:20:31;;;;;;;10.02;9.43;;;;;;;-3.28;87.92;102451.44;4978412;28;20040;-63
2022/01/24 08:22:57;;;;;;;10.20;9.60;;;;;;;-3.39;88.67;102456.88;5005941;28;20496;-64
2022/01/24 08:25:22;;;;;;;11.27;10.57;;;;;;;-3.18;88.73;102455.47;5023832;28;20080;-64
2022/01/24 08:27:48;;;;;;;10.73;10.13;;;;;;;-3.13;87.18;102459.66;4986940;28;20050;-63
2022/01/24 08:30:18;;;;;;;9.55;9.05;;;;;;;-2.99;86.15;102456.72;4988640;28;20110;-63
2022/01/24 08:32:44;;;;;;;11.75;10.95;;;;;;;-3.06;86.15;102466.41;4988029;28;20560;-63
2022/01/24 08:35:09;;;;;;;10.75;10.07;;;;;;;-3.43;86.68;102463.88;4993221;28;20041;-64
2022/01/24 08:37:38;;;;;;;11.07;10.38;;;;;;;-3.25;86.62;102449.59;4993958;28;20100;-62
2022/01/24 08:40:07;;;;;;;10.38;9.73;;;;;;;-2.85;85.15;102456.34;4992983;28;20456;-63
2022/01/24 08:47:31;;;;;;;10.77;10.13;;;;;;;-3.07;84.36;102466.47;4982084;28;20042;-63
2022/01/24 08:49:58;;;;;;;9.93;9.38;;;;;;;-3.28;84.77;102470.44;4990598;28;20443;-64
2022/01/24 08:52:25;;;;;;;11.77;11.00;;;;;;;-3.28;84.01;102467.00;4985488;28;20030;-62
2022/01/24 08:54:51;;;;;;;11.20;10.50;;;;;;;-3.26;84.40;102467.81;4982673;28;20069;-63
2022/01/24 08:57:21;;;;;;;10.35;9.75;;;;;;;-3.40;83.93;102465.53;4991183;28;20640;-62
2022/01/24 08:59:47;;;;;;;10.52;9.93;;;;;;;-3.33;84.83;102473.13;4979165;28;20045;-63
2022/01/24 09:02:13;;;;;;;11.00;10.32;;;;;;;-3.30;84.75;102472.22;4981111;28;20117;-64
2022/01/24 09:04:38;;;;;;;11.48;10.75;;;;;;;-3.40;84.73;102461.22;4981743;28;20165;-65
2022/01/24 09:07:05;;;;;;;10.48;9.90;;;;;;;-3.50;85.60;102479.63;4985269;28;20031;-64
2022/01/24 09:09:34;;;;;;;11.27;10.57;;;;;;;-3.58;85.88;102473.78;4980421;28;20027;-64
2022/01/24 09:12:03;;;;;;;10.68;10.07;;;;;;;-3.54;86.37;102471.06;4989449;28;20165;-62
2022/01/24 09:14:28;;;;;;;11.00;10.30;;;;;;;-3.25;85.49;102482.47;4987022;28;20092;-62
2022/01/24 09:16:54;;;;;;;10.35;9.75;;;;;;;-3.42;85.50;102480.31;4993758;28;20513;-63
2022/01/24 09:19:19;;;;;;;10.48;9.88;;;;;;;-3.40;83.05;102484.56;4988093;28;20049;-64
2022/01/24 09:21:45;;;;;;;11.10;10.40;;;;;;;-3.36;82.92;102462.00;4981693;28;20526;-64
2022/01/24 09:24:10;;;;;;;10.77;10.10;;;;;;;-3.38;82.98;102487.09;4990130;28;20196;-64
2022/01/24 09:26:36;;;;;;;10.70;10.10;;;;;;;-3.40;82.95;102478.53;4996817;28;20149;-64
2022/01/24 09:29:02;;;;;;;9.90;9.40;;;;;;;-3.38;81.14;102454.25;5009899;28;20547;-64
2022/01/24 09:31:30;;;;;;;10.25;9.65;;;;;;;-3.36;81.92;102486.22;5007571;28;20592;-63
2022/01/24 09:33:56;;;;;;;10.82;10.20;;;;;;;-3.45;81.91;102475.19;5004425;28;20041;-62
2022/01/24 09:36:22;;;;;;;10.57;9.98;;;;;;;-3.37;82.21;102481.06;4997964;28;20022;-64
2022/01/24 09:38:47;;;;;;;12.20;11.30;;;;;;;-3.45;82.71;102476.06;5007343;28;20029;-64
2022/01/24 09:41:13;;;;;;;9.80;9.30;;;;;;;-3.46;82.86;102473.47;5016687;28;20021;-65
2022/01/24 09:43:40;;;;;;;10.30;9.75;;;;;;;-3.51;83.18;102467.56;5003008;28;20058;-64
2022/01/24 09:46:08;;;;;;;10.57;9.98;;;;;;;-3.67;82.14;102462.75;5011056;28;20025;-63
2022/01/24 09:48:34;;;;;;;11.30;10.60;;;;;;;-3.59;82.25;102469.50;5008532;28;20237;-64
2022/01/24 09:51:00;;;;;;;10.10;9.60;;;;;;;-3.58;83.48;102461.66;5008191;28;20156;-64
2022/01/24 09:53:26;;;;;;;10.70;10.10;;;;;;;-3.81;86.17;102458.75;5008517;28;20121;-63
2022/01/24 09:55:52;;;;;;;11.95;11.15;;;;;;;-3.91;86.35;102460.69;5006791;28;20081;-64
2022/01/24 09:58:19;;;;;;;11.02;10.40;;;;;;;-3.95;87.69;102456.47;5007197;28;20490;-63
2022/01/24 10:00:48;;;;;;;10.55;9.95;;;;;;;-3.90;87.95;102454.63;4985789;28;20437;-63
2022/01/24 10:03:14;;;;;;;10.38;9.88;;;;;;;-3.94;87.78;102440.88;4995630;28;20026;-63
2022/01/24 10:05:42;;;;;;;10.98;10.38;;;;;;;-3.96;88.02;102437.47;5007918;28;20040;-64
2022/01/24 10:08:17;;;;;;;11.40;10.70;;;;;;;-3.87;87.98;102446.78;5002856;28;20026;-64
2022/01/24 10:10:52;;;;;;;11.02;10.43;;;;;;;-3.80;88.99;102437.13;5010530;28;20034;-65
2022/01/24 10:19:01;;;;;;;10.88;10.27;;;;;;;-3.94;88.70;102421.88;4997747;28;20045;-69
2022/01/24 10:21:27;;;;;;;11.00;10.35;;;;;;;-4.07;88.59;102410.94;5019539;28;20084;-70
2022/01/24 10:23:54;;;;;;;11.35;10.65;;;;;;;-3.96;88.48;102439.22;5001228;28;20021;-69
2022/01/24 10:26:19;;;;;;;10.52;10.02;;;;;;;-4.00;87.73;102425.47;5008269;28;20125;-68
2022/01/24 10:28:46;;;;;;;11.57;10.88;;;;;;;-3.96;87.94;102424.53;5008206;28;20036;-69
2022/01/24 10:31:24;;;;;;;10.88;10.27;;;;;;;-3.89;87.56;102425.25;5009159;28;20034;-69
2022/01/24 10:34:22;;;;;;;11.75;11.05;;;;;;;-3.66;87.08;102428.13;4994893;28;20041;-69
2022/01/24 10:36:53;;;;;;;11.07;10.38;;;;;;;-3.87;87.19;102420.88;4989686;28;20033;-70
2022/01/24 10:44:49;;;;;;;11.95;11.18;;;;;;;-3.81;87.55;102443.22;5003583;28;20040;-70
2022/01/24 10:47:19;;;;;;;10.48;9.88;;;;;;;-3.96;87.14;102426.25;5022525;28;20038;-68
2022/01/24 10:49:46;;;;;;;10.68;10.07;;;;;;;-3.90;87.83;102441.66;4994827;28;20388;-69
2022/01/24 10:52:18;;;;;;;12.15;11.35;;;;;;;-3.93;87.53;102416.66;5021980;28;20492;-68
2022/01/24 10:54:45;;;;;;;11.70;10.98;;;;;;;-3.79;87.35;102418.94;5003514;28;20556;-68
2022/01/24 10:57:29;;;;;;;10.15;9.63;;;;;;;-4.02;87.30;102413.44;5009068;28;20052;-68
2022/01/24 11:00:08;;;;;;;10.77;10.18;;;;;;;-3.95;86.79;102427.97;4997797;28;20091;-69
2022/01/24 11:02:40;;;;;;;11.32;10.60;;;;;;;-3.86;86.99;102419.13;5008504;28;20041;-67
2022/01/24 11:05:24;;;;;;;10.10;9.60;;;;;;;-3.80;86.70;102425.00;5002592;28;20022;-65
2022/01/24 11:08:10;;;;;;;12.05;11.25;;;;;;;-3.84;86.15;102427.69;5005254;28;20026;-64
2022/01/24 11:10:40;;;;;;;11.25;10.55;;;;;;;-3.77;86.18;102411.13;5006845;28;20108;-65
2022/01/24 11:13:06;;;;;;;10.93;10.30;;;;;;;-3.76;85.97;102423.19;5005780;28;20018;-66
2022/01/24 11:15:33;;;;;;;11.52;10.80;;;;;;;-3.86;85.90;102419.13;4989948;28;20093;-65
2022/01/24 11:18:00;;;;;;;11.27;10.57;;;;;;;-3.56;85.25;102415.78;5004523;28;20066;-64
2022/01/24 11:20:33;;;;;;;11.40;10.70;;;;;;;-3.83;84.17;102400.88;4997758;28;20057;-64
2022/01/24 11:23:01;;;;;;;10.27;9.77;;;;;;;-3.67;84.92;102420.41;5005402;28;20026;-65
2022/01/24 11:25:32;;;;;;;11.23;10.52;;;;;;;-3.64;85.08;102410.78;5004447;28;20042;-65
2022/01/24 11:28:00;;;;;;;11.85;11.05;;;;;;;-3.53;85.04;102412.25;5000966;28;20050;-65
2022/01/24 11:30:30;;;;;;;11.23;10.52;;;;;;;-3.76;84.62;102410.22;5004111;28;20060;-65
2022/01/24 11:33:04;;;;;;;11.32;10.63;;;;;;;-3.70;85.71;102412.66;5001428;28;20560;-66
2022/01/24 11:35:40;;;;;;;11.02;10.38;;;;;;;-3.62;85.28;102421.97;5004758;28;20025;-66
2022/01/24 11:38:28;;;;;;;11.30;10.60;;;;;;;-3.82;85.42;102416.41;5005371;28;20034;-65
2022/01/24 11:41:03;;;;;;;11.27;10.57;;;;;;;-3.53;84.47;102415.69;5004358;28;20572;-66
2022/01/24 11:43:34;;;;;;;10.57;9.98;;;;;;;-3.69;85.11;102422.16;5001726;28;20048;-65
2022/01/24 11:46:07;;;;;;;10.68;10.07;;;;;;;-3.68;84.57;102406.53;4991909;28;20062;-67
2022/01/24 11:48:36;;;;;;;12.70;11.80;;;;;;;-3.62;84.71;102411.59;5002638;28;20485;-65
2022/01/24 11:51:05;;;;;;;11.25;10.55;;;;;;;-3.94;85.54;102419.31;5005020;28;20172;-66
2022/01/24 11:53:33;;;;;;;11.40;10.77;;;;;;;-3.88;85.17;102426.09;5003139;28;20030;-66
2022/01/24 11:56:18;;;;;;;12.18;11.32;;;;;;;-3.79;85.67;102421.53;5001745;28;20021;-65
2022/01/24 11:58:44;;;;;;;11.15;10.45;;;;;;;-3.86;85.42;102419.13;4998869;28;20041;-66
2022/01/24 12:01:14;;;;;;;12.70;11.80;;;;;;;-3.73;85.90;102420.53;4998255;28;20033;-66
2022/01/24 12:03:49;;;;;;;10.77;10.18;;;;;;;-3.59;85.26;102428.00;4986869;28;20026;-66
2022/01/24 12:06:19;;;;;;;10.80;10.20;;;;;;;-3.64;85.78;102423.75;5004695;28;20038;-67
2022/01/24 12:08:47;;;;;;;10.73;10.13;;;;;;;-3.49;85.48;102421.66;5001124;28;20026;-65
2022/01/24 12:11:12;;;;;;;10.55;9.95;;;;;;;-3.44;84.50;102422.41;5005249;28;20400;-66
2022/01/24 12:13:49;;;;;;;11.68;10.98;;;;;;;-3.60;84.57;102419.31;4997169;28;20029;-64
2022/01/24 12:16:20;;;;;;;11.23;10.52;;;;;;;-3.54;84.05;102420.94;4988736;28;20109;-67
2022/01/24 12:18:48;;;;;;;10.18;9.65;;;;;;;-3.39;84.11;102421.38;5002479;28;20552;-64
2022/01/24 12:21:15;;;;;;;11.25;10.55;;;;;;;-3.30;84.85;102422.94;5003927;28;20030;-64
2022/01/24 12:23:43;;;;;;;10.85;10.25;;;;;;;-3.72;84.12;102381.59;5002150;28;20021;-65
2022/01/24 12:26:12;;;;;;;11.55;10.85;;;;;;;-3.58;84.37;102427.09;5006886;28;20050;-65
2022/01/24 12:28:45;;;;;;;11.10;10.40;;;;;;;-3.61;85.11;102423.66;5000044;28;20505;-65
2022/01/24 12:31:26;;;;;;;11.67;10.87;;;;;;;-3.52;84.69;102424.34;5005554;28;20443;-66
2022/01/24 12:33:54;;;;;;;11.35;10.65;;;;;;;-3.43;84.11;102429.31;5003049;28;20037;-69
2022/01/24 12:36:47;;;;;;;10.95;10.27;;;;;;;-3.42;84.22;102431.84;5017316;28;20432;-68
2022/01/24 12:39:40;;;;;;;11.43;10.70;;;;;;;-3.44;84.60;102422.41;5000419;28;20492;-64
2022/01/24 12:42:18;;;;;;;9.82;9.32;;;;;;;-3.45;84.82;102425.88;5005958;28;20120;-66
2022/01/24 12:47:21;;;;;;;10.35;9.75;;;;;;;-3.44;84.24;102425.00;5007023;28;20113;-66
2022/01/24 12:49:47;;;;;;;9.80;9.30;;;;;;;-3.53;84.68;102431.25;5006039;28;20036;-66
2022/01/24 12:52:16;;;;;;;11.38;10.68;;;;;;;-3.63;84.41;102432.38;5004915;28;20057;-66
2022/01/24 12:54:49;;;;;;;12.32;11.50;;;;;;;-3.80;85.03;102440.56;4987944;28;20064;-64
2022/01/24 12:57:18;;;;;;;11.10;10.40;;;;;;;-3.57;85.34;102439.19;5001196;28;20036;-65
2022/01/24 13:00:01;;;;;;;10.68;10.07;;;;;;;-3.67;85.13;102441.16;4995532;28;20072;-68
2022/01/24 13:02:30;;;;;;;10.68;10.07;;;;;;;-3.74;84.96;102445.63;5002982;28;20056;-65
2022/01/24 13:05:03;;;;;;;11.25;10.55;;;;;;;-3.83;84.96;102427.66;5003649;28;20076;-66
2022/01/24 13:07:31;;;;;;;10.00;9.50;;;;;;;-3.92;85.29;102414.91;5004409;28;20036;-65